Time;durP1;ratioP1;P1;durP2;ratioP2;P2;SDS_P1;SDS_P2;PMS_P1;PMS_P2;Temp;Humidity;BMP_temperature;BMP_pressure;BME280_temperature;BME280_humidity;BME280_pressure;Samples;Min_cycle;Max_cycle;Signal;HPM_P1;HPM_P2
2020/12/22 00:00:34;;;;;;;4.40;2.72;;;12.50;99.90;;;;;;5048458;28;20041;-61
2020/12/22 00:02:59;;;;;;;4.45;2.42;;;12.50;99.90;;;;;;5047683;28;20032;-60
2020/12/22 00:05:25;;;;;;;3.55;2.28;;;12.60;99.90;;;;;;5048459;28;20060;-60
2020/12/22 00:07:50;;;;;;;4.25;2.60;;;12.60;99.90;;;;;;5047984;28;20056;-61
2020/12/22 00:10:16;;;;;;;2.88;1.90;;;12.50;99.90;;;;;;5047060;28;20072;-60
2020/12/22 00:12:42;;;;;;;3.03;2.08;;;12.60;99.90;;;;;;5048455;28;20037;-60
2020/12/22 00:15:08;;;;;;;2.55;1.80;;;12.50;99.90;;;;;;5047898;28;20047;-62
2020/12/22 00:17:35;;;;;;;2.95;2.05;;;12.60;99.90;;;;;;5071862;28;20477;-60
2020/12/22 00:20:00;;;;;;;5.07;2.25;;;12.60;99.90;;;;;;5048110;28;20033;-60
2020/12/22 00:22:26;;;;;;;3.50;2.05;;;12.60;99.90;;;;;;5072225;28;20086;-63
2020/12/22 00:24:51;;;;;;;2.60;1.88;;;12.60;99.90;;;;;;5048197;28;20458;-61
2020/12/22 00:27:17;;;;;;;3.35;2.17;;;12.60;99.90;;;;;;5048559;28;20083;-61
2020/12/22 00:29:42;;;;;;;3.00;2.10;;;12.50;99.90;;;;;;5069974;28;20120;-62
2020/12/22 00:32:08;;;;;;;2.53;1.90;;;12.50;99.90;;;;;;5047441;28;20065;-63
2020/12/22 00:34:34;;;;;;;3.35;2.20;;;12.50;99.90;;;;;;5071864;28;20036;-60
2020/12/22 00:37:00;;;;;;;3.85;2.10;;;12.60;99.90;;;;;;5069912;28;20033;-60
2020/12/22 00:39:29;;;;;;;4.18;2.05;;;12.60;99.90;;;;;;5048236;28;20499;-60
2020/12/22 00:41:55;;;;;;;2.83;1.80;;;12.60;99.90;;;;;;5048328;28;20044;-63
2020/12/22 00:44:22;;;;;;;2.97;1.70;;;12.60;99.90;;;;;;5049294;28;20037;-60
2020/12/22 00:46:48;;;;;;;1.98;1.40;;;12.60;99.90;;;;;;5052238;28;20033;-62
2020/12/22 00:49:14;;;;;;;3.88;1.40;;;12.60;99.90;;;;;;5052358;28;20028;-59
2020/12/22 00:51:39;;;;;;;3.95;1.60;;;12.60;99.90;;;;;;5048902;28;20159;-60
2020/12/22 00:54:05;;;;;;;3.70;1.63;;;12.60;99.90;;;;;;5047698;28;20560;-60
2020/12/22 00:56:31;;;;;;;2.90;1.40;;;12.60;99.90;;;;;;5048046;28;20045;-59
2020/12/22 00:58:56;;;;;;;4.85;1.48;;;12.60;99.90;;;;;;5048429;28;20116;-60
2020/12/22 01:01:22;;;;;;;2.38;1.27;;;12.60;99.90;;;;;;5046731;28;20045;-62
2020/12/22 01:03:48;;;;;;;4.45;1.70;;;12.60;99.90;;;;;;5048216;28;20040;-61
2020/12/22 01:06:15;;;;;;;3.83;1.40;;;12.60;99.90;;;;;;5048101;28;20105;-59
2020/12/22 01:08:41;;;;;;;2.33;1.38;;;12.60;99.90;;;;;;5048099;28;20041;-60
2020/12/22 01:11:06;;;;;;;2.65;1.30;;;12.60;99.90;;;;;;5047491;28;20025;-61
2020/12/22 01:13:32;;;;;;;2.78;1.30;;;12.60;99.90;;;;;;5048099;28;20107;-59
2020/12/22 01:15:57;;;;;;;3.70;1.70;;;12.60;99.90;;;;;;5051632;28;20060;-60
2020/12/22 01:18:23;;;;;;;2.92;1.10;;;12.60;99.90;;;;;;5050844;28;20033;-61
2020/12/22 01:20:49;;;;;;;2.10;1.15;;;12.60;99.90;;;;;;5051447;28;20033;-61
2020/12/22 01:23:15;;;;;;;3.50;1.25;;;12.60;99.90;;;;;;5050966;28;20509;-63
2020/12/22 01:25:41;;;;;;;1.48;0.80;;;12.60;99.90;;;;;;5051380;28;20039;-60
2020/12/22 01:28:07;;;;;;;1.20;0.93;;;12.60;99.90;;;;;;5050875;28;20086;-60
2020/12/22 01:30:35;;;;;;;1.25;0.80;;;12.60;99.90;;;;;;5051063;28;20036;-61
2020/12/22 01:33:00;;;;;;;1.30;0.70;;;12.70;99.90;;;;;;5051512;28;20053;-61
2020/12/22 01:35:26;;;;;;;0.95;0.63;;;12.60;99.90;;;;;;5050913;28;20053;-60
2020/12/22 01:37:51;;;;;;;2.00;0.60;;;12.70;99.90;;;;;;5051257;28;20064;-60
2020/12/22 01:40:17;;;;;;;0.95;0.82;;;12.70;99.90;;;;;;5050700;28;20112;-60
2020/12/22 01:42:43;;;;;;;1.20;0.70;;;12.70;99.90;;;;;;5051451;28;20067;-59
2020/12/22 01:45:10;;;;;;;2.85;0.77;;;12.70;99.90;;;;;;5050570;28;20481;-60
2020/12/22 01:47:43;;;;;;;1.48;0.88;;;12.70;99.90;;;;;;5049654;28;20028;-62
2020/12/22 01:50:08;;;;;;;1.52;0.95;;;12.70;99.90;;;;;;5050762;28;20025;-61
2020/12/22 01:52:34;;;;;;;1.67;1.05;;;12.70;99.90;;;;;;5074900;28;20131;-60
2020/12/22 01:54:59;;;;;;;0.82;0.68;;;12.70;99.90;;;;;;5051433;28;20044;-60
2020/12/22 01:57:25;;;;;;;0.60;0.40;;;12.70;99.90;;;;;;5050374;28;20090;-60
2020/12/22 01:59:50;;;;;;;3.65;1.25;;;12.70;99.90;;;;;;5052368;28;20516;-61
2020/12/22 02:02:16;;;;;;;2.53;0.40;;;12.70;99.90;;;;;;5075895;28;20033;-60
2020/12/22 02:04:41;;;;;;;0.68;0.30;;;12.70;99.90;;;;;;5051307;28;20040;-60
2020/12/22 02:07:12;;;;;;;0.68;0.40;;;12.70;99.90;;;;;;5055395;28;20048;-60
2020/12/22 02:09:38;;;;;;;0.80;0.47;;;12.70;99.90;;;;;;5056906;28;20403;-61
2020/12/22 02:12:04;;;;;;;0.32;0.30;;;12.70;99.90;;;;;;5056530;28;20413;-60
2020/12/22 02:14:29;;;;;;;1.55;0.30;;;12.70;99.90;;;;;;5049764;28;20033;-60
2020/12/22 02:16:55;;;;;;;1.83;0.38;;;12.70;99.90;;;;;;5050700;28;20029;-61
2020/12/22 02:19:22;;;;;;;2.17;0.20;;;12.70;99.90;;;;;;5050283;28;20112;-60
2020/12/22 02:21:47;;;;;;;1.88;0.50;;;12.70;99.90;;;;;;5049743;28;20090;-61
2020/12/22 02:24:13;;;;;;;2.15;0.50;;;12.70;99.90;;;;;;5047971;28;20037;-60
2020/12/22 02:26:38;;;;;;;2.90;0.60;;;12.70;99.90;;;;;;5048950;28;20033;-60
2020/12/22 02:29:04;;;;;;;1.30;0.50;;;12.60;99.90;;;;;;5050084;28;20115;-61
2020/12/22 02:31:30;;;;;;;1.77;0.68;;;12.60;99.90;;;;;;5059641;23;20028;-60
2020/12/22 02:33:55;;;;;;;2.22;0.73;;;12.70;99.90;;;;;;5027785;28;20048;-59
2020/12/22 02:36:21;;;;;;;1.42;0.60;;;12.70;99.90;;;;;;5027349;28;20037;-59
2020/12/22 02:38:47;;;;;;;5.57;0.80;;;12.70;99.90;;;;;;5027923;28;20565;-59
2020/12/22 02:41:13;;;;;;;1.27;0.50;;;12.70;99.90;;;;;;5030197;28;20112;-59
2020/12/22 02:43:38;;;;;;;1.15;0.43;;;12.70;99.90;;;;;;5049147;28;20116;-59
2020/12/22 02:46:04;;;;;;;1.23;0.60;;;12.70;99.90;;;;;;5049882;28;20474;-59
2020/12/22 02:48:30;;;;;;;1.92;0.40;;;12.70;99.90;;;;;;5049545;28;20428;-59
2020/12/22 02:50:55;;;;;;;1.35;0.22;;;12.80;99.90;;;;;;5048997;28;20021;-59
2020/12/22 02:53:21;;;;;;;5.10;0.82;;;12.70;99.90;;;;;;5049222;28;20048;-60
2020/12/22 02:55:47;;;;;;;2.58;0.30;;;12.60;99.90;;;;;;5072700;28;20029;-60
2020/12/22 02:58:12;;;;;;;1.58;0.80;;;12.60;99.90;;;;;;5049169;28;20397;-60
2020/12/22 03:00:39;;;;;;;1.30;0.20;;;12.60;99.90;;;;;;5047515;28;20040;-60
2020/12/22 03:03:05;;;;;;;3.10;0.30;;;12.60;99.90;;;;;;5072625;28;20033;-59
2020/12/22 03:05:30;;;;;;;2.45;0.22;;;12.70;99.90;;;;;;5049077;28;20041;-59
2020/12/22 03:07:56;;;;;;;1.33;0.65;;;12.70;99.90;;;;;;5048703;28;20037;-59
2020/12/22 03:10:22;;;;;;;4.38;0.45;;;12.70;99.90;;;;;;5049315;28;20033;-61
2020/12/22 03:12:48;;;;;;;5.03;0.65;;;12.70;99.90;;;;;;5048316;28;20386;-59
2020/12/22 03:15:14;;;;;;;2.70;0.82;;;12.70;99.90;;;;;;5047731;28;20033;-61
2020/12/22 03:17:40;;;;;;;4.72;0.65;;;12.70;99.90;;;;;;5072236;28;20036;-59
2020/12/22 03:20:08;;;;;;;5.13;0.77;;;12.60;99.90;;;;;;5049004;28;20797;-61
2020/12/22 03:22:35;;;;;;;5.60;0.98;;;12.70;99.90;;;;;;5048839;28;20044;-60
2020/12/22 03:25:02;;;;;;;7.88;1.00;;;12.70;99.90;;;;;;5048894;28;20025;-61
2020/12/22 03:27:28;;;;;;;12.88;2.35;;;12.70;99.90;;;;;;5049216;28;20103;-59
2020/12/22 03:29:53;;;;;;;7.72;1.00;;;12.70;99.90;;;;;;5048570;28;20489;-59
2020/12/22 03:32:19;;;;;;;9.98;0.95;;;12.70;99.90;;;;;;5048862;28;20041;-60
2020/12/22 03:34:44;;;;;;;7.47;0.93;;;12.70;99.90;;;;;;5049315;28;20505;-61
2020/12/22 03:37:10;;;;;;;5.57;0.95;;;12.70;99.90;;;;;;5049585;28;20111;-60
2020/12/22 03:39:35;;;;;;;2.88;0.80;;;12.70;99.90;;;;;;5049010;28;20040;-61
2020/12/22 03:42:01;;;;;;;8.55;0.85;;;12.70;99.90;;;;;;5072351;28;20091;-59
2020/12/22 03:44:27;;;;;;;7.60;1.40;;;12.80;99.90;;;;;;5049113;28;20401;-59
2020/12/22 03:46:52;;;;;;;4.82;1.00;;;12.80;99.90;;;;;;5048089;28;20086;-60
2020/12/22 03:49:18;;;;;;;9.70;1.38;;;12.80;99.90;;;;;;5048749;28;20041;-59
2020/12/22 03:51:45;;;;;;;6.10;0.68;;;12.80;99.90;;;;;;5048194;28;20048;-63
2020/12/22 03:54:11;;;;;;;6.18;0.65;;;12.80;99.90;;;;;;5048718;28;20041;-59
2020/12/22 03:56:38;;;;;;;4.22;0.43;;;12.80;99.90;;;;;;5048443;28;20477;-59
2020/12/22 03:59:04;;;;;;;4.32;0.60;;;12.80;99.90;;;;;;5044041;28;20037;-59
2020/12/22 04:01:30;;;;;;;2.30;0.60;;;12.80;99.90;;;;;;5048425;28;20063;-61
2020/12/22 04:03:56;;;;;;;3.15;0.85;;;12.80;99.90;;;;;;5047971;28;20033;-59
2020/12/22 04:06:21;;;;;;;6.90;0.63;;;12.80;99.90;;;;;;5048431;28;20082;-58
2020/12/22 04:08:52;;;;;;;7.40;1.00;;;12.70;99.90;;;;;;5071601;28;20086;-59
2020/12/22 04:11:17;;;;;;;9.02;1.27;;;12.70;99.90;;;;;;5046763;28;20029;-61
2020/12/22 04:13:43;;;;;;;5.93;0.52;;;12.70;99.90;;;;;;5048048;28;20041;-60
2020/12/22 04:16:09;;;;;;;9.57;0.80;;;12.70;99.90;;;;;;5046426;28;20064;-60
2020/12/22 04:18:34;;;;;;;7.30;0.85;;;12.70;99.90;;;;;;5048602;28;20061;-60
2020/12/22 04:21:00;;;;;;;6.63;0.90;;;12.80;99.90;;;;;;5047739;28;20409;-60
2020/12/22 04:23:26;;;;;;;6.18;0.70;;;12.80;99.90;;;;;;5047958;28;20037;-59
2020/12/22 04:25:52;;;;;;;5.25;0.70;;;12.80;99.90;;;;;;5048182;28;20037;-59
2020/12/22 04:28:18;;;;;;;4.05;0.60;;;12.90;99.90;;;;;;5047597;28;20028;-60
2020/12/22 04:30:44;;;;;;;5.78;0.68;;;12.90;99.90;;;;;;5048045;28;20069;-59
2020/12/22 04:33:11;;;;;;;4.22;1.23;;;12.80;99.90;;;;;;5047571;28;20061;-59
2020/12/22 04:35:37;;;;;;;3.65;0.50;;;12.80;99.90;;;;;;5048485;28;20033;-59
2020/12/22 04:38:04;;;;;;;7.63;0.75;;;12.80;99.90;;;;;;5046083;28;20044;-60
2020/12/22 04:40:30;;;;;;;5.68;0.60;;;12.80;99.90;;;;;;5047916;28;20473;-59
2020/12/22 04:42:58;;;;;;;6.93;1.20;;;12.80;99.90;;;;;;5047950;28;20468;-62
2020/12/22 04:45:28;;;;;;;6.75;0.60;;;12.80;99.90;;;;;;5047862;28;20025;-60
2020/12/22 04:47:55;;;;;;;5.53;0.50;;;12.70;99.90;;;;;;5048184;28;20087;-60
2020/12/22 04:50:21;;;;;;;8.23;0.93;;;12.70;99.90;;;;;;5051274;28;20040;-60
2020/12/22 04:52:47;;;;;;;4.07;0.70;;;12.70;99.90;;;;;;5051739;28;20033;-59
2020/12/22 04:55:14;;;;;;;7.32;0.75;;;12.70;99.90;;;;;;5051228;28;20037;-60
2020/12/22 04:57:48;;;;;;;8.88;0.93;;;12.70;99.90;;;;;;5051751;28;20040;-60
2020/12/22 05:00:14;;;;;;;9.32;0.95;;;12.60;99.90;;;;;;5051490;28;20528;-59
2020/12/22 05:02:42;;;;;;;7.95;0.98;;;12.60;99.90;;;;;;5051460;28;20029;-59
2020/12/22 05:05:08;;;;;;;5.35;0.77;;;12.60;99.90;;;;;;5050941;28;20086;-59
2020/12/22 05:07:34;;;;;;;14.35;1.17;;;12.60;99.90;;;;;;5047318;28;20063;-59
2020/12/22 05:10:06;;;;;;;9.40;0.73;;;12.60;99.90;;;;;;5051337;28;20497;-59
2020/12/22 05:12:32;;;;;;;8.65;1.08;;;12.60;99.90;;;;;;5047272;28;20032;-60
2020/12/22 05:15:03;;;;;;;5.85;1.15;;;12.60;99.90;;;;;;5051409;28;20381;-60
2020/12/22 05:17:29;;;;;;;5.43;1.05;;;12.60;99.90;;;;;;5046915;28;20029;-59
2020/12/22 05:19:55;;;;;;;8.25;1.38;;;12.60;99.90;;;;;;5051158;28;20504;-60
2020/12/22 05:22:25;;;;;;;9.32;1.42;;;12.60;99.90;;;;;;5050757;28;20043;-58
2020/12/22 05:24:51;;;;;;;5.90;0.50;;;12.70;99.90;;;;;;5051284;28;20036;-61
2020/12/22 05:27:20;;;;;;;7.97;0.98;;;12.60;99.90;;;;;;5050827;28;20414;-60
2020/12/22 05:29:49;;;;;;;9.30;1.52;;;12.70;99.90;;;;;;5050896;28;20052;-60
2020/12/22 05:32:17;;;;;;;6.50;0.73;;;12.70;99.90;;;;;;5048821;28;20370;-62
2020/12/22 05:34:43;;;;;;;11.00;1.45;;;12.70;99.90;;;;;;5050724;28;20041;-59
2020/12/22 05:37:09;;;;;;;7.30;0.65;;;12.70;99.90;;;;;;5051106;28;20029;-59
2020/12/22 05:39:40;;;;;;;4.20;0.98;;;12.70;99.90;;;;;;5050180;28;20036;-59
2020/12/22 05:42:14;;;;;;;4.88;0.50;;;12.70;99.90;;;;;;5049335;28;20032;-60
2020/12/22 05:44:51;;;;;;;7.85;0.75;;;12.70;99.90;;;;;;5050305;28;20059;-59
2020/12/22 05:47:21;;;;;;;8.20;0.90;;;12.70;99.90;;;;;;5048967;28;20040;-60
2020/12/22 05:49:54;;;;;;;6.30;1.20;;;12.70;99.90;;;;;;5050669;28;20045;-59
2020/12/22 05:52:25;;;;;;;8.00;0.95;;;12.70;99.90;;;;;;5049862;28;20043;-59
2020/12/22 05:54:51;;;;;;;;;;;12.70;99.90;;;;;;5050989;28;20469;-60
2020/12/22 05:57:35;;;;;;;6.53;0.85;;;12.60;99.90;;;;;;5050586;28;19948;-59
2020/12/22 06:00:14;;;;;;;6.65;1.15;;;12.70;99.90;;;;;;5046621;28;20461;-59
2020/12/22 06:02:41;;;;;;;6.47;1.00;;;12.70;99.90;;;;;;5049836;28;20107;-60
2020/12/22 06:05:07;;;;;;;6.25;1.10;;;12.70;99.90;;;;;;5050631;28;20486;-59
2020/12/22 06:07:33;;;;;;;10.13;0.90;;;12.60;99.90;;;;;;5048811;28;20094;-59
2020/12/22 06:09:59;;;;;;;5.85;0.80;;;12.60;99.90;;;;;;5049743;28;20074;-59
2020/12/22 06:12:25;;;;;;;7.15;0.70;;;12.70;99.90;;;;;;5050342;28;20182;-60
2020/12/22 06:14:53;;;;;;;10.52;1.48;;;12.70;99.90;;;;;;5049769;28;20036;-60
2020/12/22 06:17:20;;;;;;;4.80;0.57;;;12.60;99.90;;;;;;5050099;28;20029;-61
2020/12/22 06:19:46;;;;;;;9.88;0.82;;;12.60;99.90;;;;;;5049562;28;20037;-59
2020/12/22 06:22:19;;;;;;;10.73;0.95;;;12.70;99.90;;;;;;5048615;28;20033;-59
2020/12/22 06:24:45;;;;;;;4.65;0.65;;;12.60;99.90;;;;;;5049380;28;20039;-59
2020/12/22 06:27:13;;;;;;;8.65;0.93;;;12.60;99.90;;;;;;5048298;28;20037;-60
2020/12/22 06:29:44;;;;;;;10.68;1.95;;;12.70;99.90;;;;;;5049881;28;20041;-59
2020/12/22 06:32:28;;;;;;;6.93;1.13;;;12.60;99.90;;;;;;5048460;28;20397;-60
2020/12/22 06:34:55;;;;;;;2.83;0.60;;;12.60;99.90;;;;;;5047734;28;20041;-60
2020/12/22 06:37:23;;;;;;;5.25;1.00;;;12.60;99.90;;;;;;5068441;28;20090;-59
2020/12/22 06:39:50;;;;;;;10.73;1.10;;;12.60;99.90;;;;;;5048686;28;20404;-59
2020/12/22 06:42:28;;;;;;;7.30;1.20;;;12.50;99.90;;;;;;5048466;28;20033;-59
2020/12/22 06:44:53;;;;;;;6.72;0.73;;;12.50;99.90;;;;;;5045008;28;20037;-60
2020/12/22 06:47:34;;;;;;;13.05;0.70;;;12.50;99.90;;;;;;5046010;28;20087;-60
2020/12/22 06:49:59;;;;;;;2.20;0.55;;;12.50;99.90;;;;;;5046686;28;20544;-59
2020/12/22 06:52:34;;;;;;;6.88;1.25;;;12.50;99.90;;;;;;5048500;28;20033;-60
2020/12/22 06:55:02;;;;;;;3.95;0.70;;;12.50;99.90;;;;;;5044427;28;20064;-59
2020/12/22 06:57:48;;;;;;;8.00;1.00;;;12.50;99.90;;;;;;5048158;28;20048;-59
2020/12/22 07:00:26;;;;;;;21.02;1.95;;;12.50;99.90;;;;;;5046281;28;20113;-59
2020/12/22 07:02:53;;;;;;;10.25;1.23;;;12.40;99.90;;;;;;5047689;28;20497;-60
2020/12/22 07:05:36;;;;;;;5.88;1.00;;;12.40;99.90;;;;;;5048092;28;20397;-60
2020/12/22 07:08:03;;;;;;;12.38;2.97;;;12.40;99.90;;;;;;5044935;28;20036;-59
2020/12/22 07:10:29;;;;;;;7.13;0.98;;;12.40;99.90;;;;;;5048121;28;20029;-59
2020/12/22 07:12:59;;;;;;;6.05;0.70;;;12.40;99.90;;;;;;5069635;28;20114;-60
2020/12/22 07:15:31;;;;;;;10.05;1.55;;;12.40;99.90;;;;;;5043857;28;20482;-59
2020/12/22 07:18:14;;;;;;;7.65;0.93;;;12.30;99.90;;;;;;5043969;28;20025;-59
2020/12/22 07:20:41;;;;;;;8.65;1.05;;;12.20;99.90;;;;;;5048069;28;20021;-64
2020/12/22 07:23:12;;;;;;;6.60;1.38;;;12.20;99.90;;;;;;5047374;28;20037;-59
2020/12/22 07:25:38;;;;;;;4.60;0.60;;;12.10;99.90;;;;;;5048245;28;20033;-59
2020/12/22 07:28:06;;;;;;;9.48;1.10;;;12.10;99.90;;;;;;5047091;28;20036;-62
2020/12/22 07:30:32;;;;;;;9.18;0.85;;;12.00;99.90;;;;;;5047787;28;20036;-59
2020/12/22 07:32:59;;;;;;;6.93;0.98;;;12.00;99.90;;;;;;5047759;28;20035;-59
2020/12/22 07:35:26;;;;;;;10.82;0.90;;;12.00;99.90;;;;;;5047673;28;20043;-59
2020/12/22 07:37:52;;;;;;;9.38;1.13;;;12.00;99.90;;;;;;5048223;28;20116;-58
2020/12/22 07:40:18;;;;;;;5.35;0.93;;;12.00;99.90;;;;;;5047133;28;20104;-60
2020/12/22 07:42:43;;;;;;;9.20;1.92;;;12.00;99.90;;;;;;5047716;28;20025;-59
2020/12/22 07:45:09;;;;;;;6.13;1.77;;;11.90;99.90;;;;;;5047436;28;20036;-59
2020/12/22 07:47:34;;;;;;;12.82;1.15;;;11.90;99.90;;;;;;5047639;28;20037;-59
2020/12/22 07:50:14;;;;;;;11.52;1.33;;;12.00;99.90;;;;;;5047653;28;20063;-60
2020/12/22 07:52:40;;;;;;;5.63;0.70;;;12.00;99.90;;;;;;5047155;28;20040;-60
2020/12/22 07:55:07;;;;;;;14.98;1.17;;;12.00;99.90;;;;;;5047509;28;20440;-60
2020/12/22 07:57:37;;;;;;;17.63;1.95;;;12.00;99.90;;;;;;5047031;28;20060;-60
2020/12/22 08:00:07;;;;;;;11.93;2.00;;;12.00;99.90;;;;;;5048447;28;20128;-59
2020/12/22 08:02:33;;;;;;;;;;;12.00;99.90;;;;;;5049522;28;20037;-59
2020/12/22 08:05:13;;;;;;;13.35;2.60;;;12.00;99.90;;;;;;5047377;28;20777;-61
2020/12/22 08:07:42;;;;;;;7.40;1.17;;;12.00;99.90;;;;;;5047477;28;20048;-59
2020/12/22 08:10:09;;;;;;;8.15;2.22;;;12.00;99.90;;;;;;5047754;28;20110;-60
2020/12/22 08:12:35;;;;;;;14.10;2.53;;;12.00;99.90;;;;;;5046816;28;20032;-59
2020/12/22 08:15:02;;;;;;;8.68;1.33;;;12.00;99.90;;;;;;5047389;28;20051;-59
2020/12/22 08:17:28;;;;;;;14.93;1.63;;;12.00;99.90;;;;;;5047023;28;20546;-59
2020/12/22 08:19:55;;;;;;;16.05;2.88;;;12.00;99.90;;;;;;5047498;28;20033;-60
2020/12/22 08:22:21;;;;;;;13.85;1.20;;;12.00;99.90;;;;;;5047964;28;20040;-59
2020/12/22 08:24:46;;;;;;;13.48;1.63;;;12.00;99.90;;;;;;5051621;28;20036;-59
2020/12/22 08:27:12;;;;;;;11.25;1.70;;;12.00;99.90;;;;;;5075060;28;20037;-59
2020/12/22 08:29:41;;;;;;;14.90;2.75;;;12.00;99.90;;;;;;5049748;28;20055;-59
2020/12/22 08:32:07;;;;;;;18.15;2.10;;;12.10;99.90;;;;;;5072484;23;20052;-63
2020/12/22 08:34:33;;;;;;;16.98;1.50;;;12.00;99.90;;;;;;5048459;28;20041;-63
2020/12/22 08:37:10;;;;;;;22.38;2.00;;;12.00;99.90;;;;;;5048397;28;20144;-63
2020/12/22 08:39:43;;;;;;;17.98;1.58;;;12.00;99.90;;;;;;5048550;28;20072;-63
2020/12/22 08:42:10;;;;;;;20.63;2.00;;;11.90;99.90;;;;;;5044710;28;20191;-62
2020/12/22 08:44:37;;;;;;;17.25;1.95;;;11.90;99.90;;;;;;5046484;28;20087;-64
2020/12/22 08:47:13;;;;;;;19.73;2.75;;;11.90;99.90;;;;;;5045937;28;20029;-62
2020/12/22 08:49:39;;;;;;;17.85;2.28;;;11.90;99.90;;;;;;5043091;28;20068;-62
2020/12/22 08:52:20;;;;;;;18.00;2.53;;;11.90;99.90;;;;;;5043411;28;20497;-63
2020/12/22 08:54:47;;;;;;;18.55;3.13;;;11.90;99.90;;;;;;5048622;28;20037;-63
2020/12/22 08:57:21;;;;;;;14.25;1.88;;;11.90;99.90;;;;;;5043508;28;20615;-62
2020/12/22 08:59:46;;;;;;;22.33;3.40;;;11.90;99.90;;;;;;5039020;28;20025;-62
2020/12/22 09:02:26;;;;;;;19.17;2.17;;;11.80;99.90;;;;;;5046040;28;20033;-63
2020/12/22 09:04:51;;;;;;;25.45;3.25;;;11.80;99.90;;;;;;5042733;28;20063;-63
2020/12/22 09:07:17;;;;;;;12.88;2.58;;;11.80;99.90;;;;;;5046460;28;20052;-63
2020/12/22 09:09:42;;;;;;;24.23;2.58;;;11.80;99.90;;;;;;5040881;28;20049;-63
2020/12/22 09:12:10;;;;;;;18.00;2.20;;;11.90;99.90;;;;;;5045192;28;20048;-63
2020/12/22 09:14:46;;;;;;;23.98;3.58;;;11.80;99.90;;;;;;5045421;28;20492;-63
2020/12/22 09:17:31;;;;;;;23.27;2.17;;;11.80;99.90;;;;;;5046322;28;20061;-63
2020/12/22 09:19:57;;;;;;;19.67;1.92;;;11.80;99.90;;;;;;5043246;28;20034;-64
2020/12/22 09:22:24;;;;;;;12.07;2.65;;;11.80;99.90;;;;;;5045776;28;20505;-63
2020/12/22 09:24:51;;;;;;;15.40;1.77;;;11.80;99.90;;;;;;5045507;28;20114;-64
2020/12/22 09:27:17;;;;;;;9.63;1.42;;;11.80;99.90;;;;;;5046275;28;20037;-62
2020/12/22 09:29:42;;;;;;;9.85;1.10;;;11.80;99.90;;;;;;5042176;28;20036;-63
2020/12/22 09:32:10;;;;;;;9.82;1.20;;;11.70;99.90;;;;;;5044797;28;20037;-63
2020/12/22 09:34:37;;;;;;;10.98;1.30;;;11.80;99.90;;;;;;5044293;28;20045;-65
2020/12/22 09:37:07;;;;;;;11.23;1.88;;;11.70;99.90;;;;;;5045793;28;20122;-64
2020/12/22 09:39:35;;;;;;;8.45;1.30;;;11.70;99.90;;;;;;5043690;28;20157;-63
2020/12/22 09:42:01;;;;;;;10.25;1.90;;;11.60;99.90;;;;;;5043474;28;20036;-64
2020/12/22 09:44:28;;;;;;;10.93;1.10;;;11.60;99.90;;;;;;5044718;28;20041;-63
2020/12/22 09:46:54;;;;;;;6.57;1.30;;;11.60;99.90;;;;;;5045310;28;20493;-62
2020/12/22 09:49:21;;;;;;;10.57;1.77;;;11.60;99.90;;;;;;5045028;28;20036;-63
2020/12/22 09:51:47;;;;;;;9.30;1.60;;;11.60;99.90;;;;;;5041770;28;20497;-63
2020/12/22 09:54:16;;;;;;;12.68;1.23;;;11.60;99.90;;;;;;5042273;28;20040;-64
2020/12/22 09:56:42;;;;;;;12.80;2.17;;;11.60;99.90;;;;;;5041589;28;20382;-63
2020/12/22 09:59:07;;;;;;;13.98;1.20;;;11.50;99.90;;;;;;5042824;28;20037;-63
2020/12/22 10:01:33;;;;;;;6.35;1.10;;;11.50;99.90;;;;;;5042924;28;20126;-63
2020/12/22 10:03:59;;;;;;;11.40;1.48;;;11.50;99.90;;;;;;5043335;28;20037;-63
2020/12/22 10:06:25;;;;;;;6.75;0.80;;;11.50;99.90;;;;;;5047272;28;20419;-62
2020/12/22 10:08:52;;;;;;;7.47;1.40;;;11.40;99.90;;;;;;5043645;28;20116;-62
2020/12/22 10:11:19;;;;;;;9.98;1.33;;;11.40;99.90;;;;;;5052368;28;20033;-63
2020/12/22 10:13:46;;;;;;;4.70;0.63;;;11.30;99.90;;;;;;5044186;28;20404;-64
2020/12/22 10:16:14;;;;;;;5.50;0.90;;;11.30;99.90;;;;;;5045393;28;20923;-62
2020/12/22 10:18:40;;;;;;;3.28;0.80;;;11.20;99.90;;;;;;5043922;28;20025;-63
2020/12/22 10:21:11;;;;;;;8.43;0.80;;;11.20;99.90;;;;;;5038759;28;20572;-62
2020/12/22 10:23:38;;;;;;;5.57;0.82;;;11.10;99.90;;;;;;5040756;28;20029;-63
2020/12/22 10:26:06;;;;;;;4.20;0.68;;;11.10;99.90;;;;;;5044480;28;20033;-63
2020/12/22 10:28:33;;;;;;;3.67;1.23;;;11.00;99.90;;;;;;5042712;28;20037;-63
2020/12/22 10:31:00;;;;;;;9.55;1.98;;;11.00;99.90;;;;;;5041662;28;20044;-63
2020/12/22 10:33:26;;;;;;;6.82;1.63;;;11.00;99.90;;;;;;5041417;28;20037;-62
2020/12/22 10:35:52;;;;;;;9.07;1.88;;;10.90;99.90;;;;;;5040232;28;20025;-64
2020/12/22 10:38:18;;;;;;;7.32;1.80;;;10.80;99.90;;;;;;5043303;28;20036;-64
2020/12/22 10:40:43;;;;;;;11.15;2.45;;;10.80;99.90;;;;;;5044125;28;20033;-63
2020/12/22 10:43:09;;;;;;;10.50;2.33;;;10.80;99.90;;;;;;5043479;28;20025;-64
2020/12/22 10:45:35;;;;;;;8.18;2.65;;;10.80;99.90;;;;;;5041013;28;20116;-63
2020/12/22 10:48:01;;;;;;;14.52;2.55;;;10.80;99.90;;;;;;5041902;28;20051;-64
2020/12/22 10:50:27;;;;;;;10.00;2.17;;;10.80;99.90;;;;;;5042742;28;20044;-64
2020/12/22 10:52:53;;;;;;;7.20;1.60;;;10.80;99.90;;;;;;5041724;28;20836;-63
2020/12/22 10:55:20;;;;;;;11.35;2.50;;;10.80;99.90;;;;;;5038251;28;20045;-62
2020/12/22 10:57:46;;;;;;;8.77;1.85;;;10.80;99.90;;;;;;5040328;28;20036;-63
2020/12/22 11:00:11;;;;;;;6.60;1.33;;;10.80;99.90;;;;;;5042367;28;20029;-64
2020/12/22 11:02:37;;;;;;;8.75;1.73;;;10.80;99.90;;;;;;5039735;28;20408;-62
2020/12/22 11:05:04;;;;;;;7.20;1.80;;;10.80;99.90;;;;;;5040998;28;20440;-63
2020/12/22 11:10:01;;;;;;;8.98;1.45;;;10.80;99.90;;;;;;5041850;28;20033;-63
2020/12/22 11:12:27;;;;;;;6.22;2.25;;;10.80;99.90;;;;;;5041542;28;20425;-63
2020/12/22 11:14:52;;;;;;;7.18;1.58;;;10.80;99.90;;;;;;5042896;28;20537;-64
2020/12/22 11:17:18;;;;;;;9.40;2.17;;;10.80;99.90;;;;;;5039853;28;20041;-63
2020/12/22 11:19:44;;;;;;;10.75;3.45;;;10.80;99.90;;;;;;5039445;28;20040;-63
2020/12/22 11:22:10;;;;;;;7.72;1.70;;;10.80;99.90;;;;;;5042307;28;20036;-61
2020/12/22 11:24:36;;;;;;;8.50;1.80;;;10.80;99.90;;;;;;5039680;28;20089;-64
2020/12/22 11:27:01;;;;;;;7.60;1.85;;;10.80;99.90;;;;;;5045911;28;20068;-65
2020/12/22 11:29:27;;;;;;;8.02;2.33;;;10.80;99.90;;;;;;5041235;28;20041;-63
2020/12/22 11:31:52;;;;;;;10.93;1.48;;;10.80;99.90;;;;;;5040641;28;20041;-64
2020/12/22 11:34:18;;;;;;;4.63;1.40;;;10.80;99.90;;;;;;5043741;28;20069;-64
2020/12/22 11:36:54;;;;;;;9.35;1.55;;;10.80;99.90;;;;;;5042694;28;20037;-64
2020/12/22 11:39:21;;;;;;;6.00;1.60;;;10.80;99.90;;;;;;5042266;28;20037;-64
2020/12/22 11:41:46;;;;;;;6.50;1.55;;;10.80;99.90;;;;;;5040879;28;20413;-64
2020/12/22 11:44:12;;;;;;;5.63;1.20;;;10.80;99.90;;;;;;5045712;28;20032;-64
2020/12/22 11:46:41;;;;;;;6.43;2.08;;;10.80;99.90;;;;;;5042094;28;20091;-64
2020/12/22 11:49:07;;;;;;;5.47;1.65;;;10.80;99.90;;;;;;5039337;28;20029;-64
2020/12/22 11:51:32;;;;;;;9.52;1.50;;;10.80;99.90;;;;;;5039491;28;20371;-64
2020/12/22 11:53:58;;;;;;;6.70;1.20;;;10.90;99.90;;;;;;5041131;28;20547;-63
2020/12/22 11:56:23;;;;;;;10.38;1.60;;;10.90;99.90;;;;;;5040128;28;20033;-63
2020/12/22 11:58:49;;;;;;;5.10;1.20;;;10.90;99.90;;;;;;5041110;28;20033;-63
2020/12/22 12:01:15;;;;;;;10.77;1.05;;;11.00;99.90;;;;;;5040678;28;20036;-63
2020/12/22 12:03:43;;;;;;;7.63;1.20;;;11.10;99.90;;;;;;5039444;28;20033;-63
2020/12/22 12:06:09;;;;;;;6.35;1.20;;;11.10;99.90;;;;;;5039555;28;20036;-63
2020/12/22 12:08:36;;;;;;;7.95;1.17;;;11.20;99.90;;;;;;5039648;28;20060;-63
2020/12/22 12:11:02;;;;;;;5.85;1.10;;;11.20;99.90;;;;;;5041725;28;20397;-64
2020/12/22 12:13:28;;;;;;;5.82;0.95;;;11.30;99.90;;;;;;5038367;28;20037;-63
2020/12/22 12:15:53;;;;;;;9.63;1.20;;;11.30;99.90;;;;;;5038627;28;20087;-63
2020/12/22 12:18:19;;;;;;;3.70;0.80;;;11.20;99.90;;;;;;5039763;28;20106;-63
2020/12/22 12:20:44;;;;;;;5.38;1.65;;;11.10;99.90;;;;;;5041303;28;20441;-63
2020/12/22 12:23:10;;;;;;;4.80;1.38;;;11.10;99.90;;;;;;5040969;28;20029;-64
2020/12/22 12:25:35;;;;;;;4.95;0.93;;;11.20;99.90;;;;;;5037921;28;20139;-64
2020/12/22 12:28:01;;;;;;;10.23;1.25;;;11.20;99.90;;;;;;5041453;28;20025;-64
2020/12/22 12:30:26;;;;;;;7.25;1.38;;;11.30;99.90;;;;;;5037796;28;20493;-64
2020/12/22 12:32:52;;;;;;;5.65;1.23;;;11.30;99.90;;;;;;5041328;28;20075;-64
2020/12/22 12:35:18;;;;;;;10.07;1.65;;;11.30;99.90;;;;;;5039507;28;20087;-63
2020/12/22 12:37:43;;;;;;;2.67;0.70;;;11.30;99.90;;;;;;5038778;28;20043;-63
2020/12/22 12:40:09;;;;;;;3.92;1.00;;;11.30;99.90;;;;;;5039845;28;20041;-63
2020/12/22 12:42:34;;;;;;;4.13;0.90;;;11.30;99.90;;;;;;5039417;28;20120;-63
2020/12/22 12:45:00;;;;;;;6.28;1.58;;;11.30;99.90;;;;;;5041350;28;20475;-64
2020/12/22 12:47:25;;;;;;;4.55;1.15;;;11.30;99.90;;;;;;5038286;28;20430;-64